sensor_id;sensor_type;location;lat;lon;timestamp;pressure;altitude;pressure_sealevel;temperature;humidity
34979;BME280;21185;50.978;13.720;2022-08-01T00:02:13;98091.81;;;23.41;49.70
34979;BME280;21185;50.978;13.720;2022-08-01T00:07:15;98081.41;;;23.34;49.52
34979;BME280;21185;50.978;13.720;2022-08-01T00:12:17;98071.81;;;23.28;49.82
34979;BME280;21185;50.978;13.720;2022-08-01T00:17:19;98070.72;;;23.24;50.02
34979;BME280;21185;50.978;13.720;2022-08-01T00:22:21;98071.44;;;23.19;50.69
34979;BME280;21185;50.978;13.720;2022-08-01T00:27:23;98072.75;;;23.17;50.66
34979;BME280;21185;50.978;13.720;2022-08-01T00:32:25;98073.00;;;23.15;50.94
34979;BME280;21185;50.978;13.720;2022-08-01T00:37:27;98075.88;;;23.14;50.99
34979;BME280;21185;50.978;13.720;2022-08-01T00:42:29;98071.41;;;23.14;50.55
34979;BME280;21185;50.978;13.720;2022-08-01T00:47:31;98075.09;;;23.13;50.58
34979;BME280;21185;50.978;13.720;2022-08-01T00:52:34;98070.53;;;23.09;50.09
34979;BME280;21185;50.978;13.720;2022-08-01T00:57:37;98077.06;;;23.01;50.29
34979;BME280;21185;50.978;13.720;2022-08-01T01:02:59;98076.44;;;22.94;50.32
34979;BME280;21185;50.978;13.720;2022-08-01T01:08:08;98058.34;;;22.86;50.62
34979;BME280;21185;50.978;13.720;2022-08-01T01:14:04;98061.41;;;22.78;51.06
34979;BME280;21185;50.978;13.720;2022-08-01T01:19:12;98061.84;;;22.70;50.78
34979;BME280;21185;50.978;13.720;2022-08-01T01:29:56;98056.16;;;22.61;50.85
34979;BME280;21185;50.978;13.720;2022-08-01T01:35:06;98056.41;;;22.59;50.71
34979;BME280;21185;50.978;13.720;2022-08-01T01:40:11;98053.22;;;22.57;50.81
34979;BME280;21185;50.978;13.720;2022-08-01T01:45:14;98047.13;;;22.57;50.82
34979;BME280;21185;50.978;13.720;2022-08-01T01:50:20;98042.06;;;22.55;50.70
34979;BME280;21185;50.978;13.720;2022-08-01T01:55:24;98044.72;;;22.55;50.56
34979;BME280;21185;50.978;13.720;2022-08-01T02:00:28;98036.00;;;22.55;50.57
34979;BME280;21185;50.978;13.720;2022-08-01T02:05:31;98031.75;;;22.54;50.60
34979;BME280;21185;50.978;13.720;2022-08-01T02:10:37;98037.34;;;22.57;50.86
34979;BME280;21185;50.978;13.720;2022-08-01T02:15:40;98042.38;;;22.59;50.48
34979;BME280;21185;50.978;13.720;2022-08-01T02:21:04;98048.47;;;22.59;50.58
34979;BME280;21185;50.978;13.720;2022-08-01T02:26:10;98047.69;;;22.59;50.66
34979;BME280;21185;50.978;13.720;2022-08-01T02:31:19;98045.28;;;22.57;51.17
34979;BME280;21185;50.978;13.720;2022-08-01T02:36:24;98047.38;;;22.55;50.98
34979;BME280;21185;50.978;13.720;2022-08-01T02:41:38;98061.13;;;22.57;51.12
34979;BME280;21185;50.978;13.720;2022-08-01T02:46:49;98068.03;;;22.58;50.96
34979;BME280;21185;50.978;13.720;2022-08-01T02:51:53;98074.91;;;22.59;51.04
34979;BME280;21185;50.978;13.720;2022-08-01T02:56:57;98074.28;;;22.52;51.77
34979;BME280;21185;50.978;13.720;2022-08-01T03:02:01;98071.75;;;22.41;51.99
34979;BME280;21185;50.978;13.720;2022-08-01T03:07:08;98061.59;;;22.33;52.75
34979;BME280;21185;50.978;13.720;2022-08-01T03:12:22;98059.91;;;22.26;53.30
34979;BME280;21185;50.978;13.720;2022-08-01T03:17:27;98066.47;;;22.24;53.39
34979;BME280;21185;50.978;13.720;2022-08-01T03:22:32;98067.53;;;22.23;53.91
34979;BME280;21185;50.978;13.720;2022-08-01T03:32:58;98067.22;;;22.19;54.09
34979;BME280;21185;50.978;13.720;2022-08-01T03:38:03;98061.06;;;22.14;54.75
34979;BME280;21185;50.978;13.720;2022-08-01T03:43:26;98067.84;;;22.10;54.88
34979;BME280;21185;50.978;13.720;2022-08-01T03:48:30;98071.53;;;22.09;55.16
34979;BME280;21185;50.978;13.720;2022-08-01T03:53:34;98071.53;;;22.09;55.12
34979;BME280;21185;50.978;13.720;2022-08-01T03:58:42;98068.09;;;22.08;55.36
34979;BME280;21185;50.978;13.720;2022-08-01T04:03:51;98076.81;;;22.09;55.61
34979;BME280;21185;50.978;13.720;2022-08-01T04:08:54;98082.91;;;22.09;55.63
34979;BME280;21185;50.978;13.720;2022-08-01T04:13:58;98085.72;;;22.03;56.03
34979;BME280;21185;50.978;13.720;2022-08-01T04:19:01;98084.56;;;21.98;56.09
34979;BME280;21185;50.978;13.720;2022-08-01T04:24:13;98087.69;;;21.95;56.03
34979;BME280;21185;50.978;13.720;2022-08-01T04:29:16;98096.88;;;21.93;55.90
34979;BME280;21185;50.978;13.720;2022-08-01T04:34:22;98097.13;;;21.91;56.23
34979;BME280;21185;50.978;13.720;2022-08-01T04:39:26;98097.69;;;21.93;55.85
34979;BME280;21185;50.978;13.720;2022-08-01T04:44:31;98101.69;;;21.96;56.10
34979;BME280;21185;50.978;13.720;2022-08-01T04:49:35;98101.44;;;21.97;55.76
34979;BME280;21185;50.978;13.720;2022-08-01T04:54:50;98106.97;;;21.96;56.03
34979;BME280;21185;50.978;13.720;2022-08-01T04:59:52;98110.41;;;21.96;55.80
34979;BME280;21185;50.978;13.720;2022-08-01T05:04:58;98110.41;;;21.96;56.42
34979;BME280;21185;50.978;13.720;2022-08-01T05:10:00;98104.09;;;21.97;56.79
34979;BME280;21185;50.978;13.720;2022-08-01T05:15:06;98105.69;;;21.98;56.91
34979;BME280;21185;50.978;13.720;2022-08-01T05:20:15;98119.94;;;21.97;57.50
34979;BME280;21185;50.978;13.720;2022-08-01T05:25:25;98121.78;;;21.97;57.76
34979;BME280;21185;50.978;13.720;2022-08-01T05:30:47;98121.53;;;21.98;57.89
34979;BME280;21185;50.978;13.720;2022-08-01T05:35:49;98121.91;;;22.02;58.04
34979;BME280;21185;50.978;13.720;2022-08-01T05:40:51;98121.75;;;22.09;58.71
34979;BME280;21185;50.978;13.720;2022-08-01T05:45:53;98113.19;;;22.18;58.81
34979;BME280;21185;50.978;13.720;2022-08-01T05:50:55;98118.53;;;22.23;58.74
34979;BME280;21185;50.978;13.720;2022-08-01T05:56:00;98115.09;;;22.23;59.23
34979;BME280;21185;50.978;13.720;2022-08-01T06:01:03;98121.44;;;22.22;59.66
34979;BME280;21185;50.978;13.720;2022-08-01T06:06:06;98130.16;;;22.22;59.87
34979;BME280;21185;50.978;13.720;2022-08-01T06:11:08;98137.28;;;22.22;59.98
34979;BME280;21185;50.978;13.720;2022-08-01T06:16:14;98140.72;;;22.22;60.09
34979;BME280;21185;50.978;13.720;2022-08-01T06:21:15;98145.44;;;22.20;60.20
34979;BME280;21185;50.978;13.720;2022-08-01T06:26:20;98147.53;;;22.18;60.39
34979;BME280;21185;50.978;13.720;2022-08-01T06:31:22;98147.78;;;22.17;61.07
34979;BME280;21185;50.978;13.720;2022-08-01T06:36:32;98155.94;;;22.15;61.02
34979;BME280;21185;50.978;13.720;2022-08-01T06:41:35;98158.25;;;22.12;60.98
34979;BME280;21185;50.978;13.720;2022-08-01T06:46:39;98157.22;;;22.13;61.10
34979;BME280;21185;50.978;13.720;2022-08-01T06:51:41;98169.38;;;22.14;61.61
34979;BME280;21185;50.978;13.720;2022-08-01T06:56:43;98164.81;;;22.09;62.01
34979;BME280;21185;50.978;13.720;2022-08-01T07:01:45;98164.19;;;22.02;62.37
34979;BME280;21185;50.978;13.720;2022-08-01T07:06:47;98167.03;;;22.01;62.30
34979;BME280;21185;50.978;13.720;2022-08-01T07:11:49;98168.19;;;22.05;62.22
34979;BME280;21185;50.978;13.720;2022-08-01T07:16:52;98175.72;;;22.13;62.22
34979;BME280;21185;50.978;13.720;2022-08-01T07:21:54;98180.75;;;22.14;62.13
34979;BME280;21185;50.978;13.720;2022-08-01T07:26:58;98174.44;;;22.15;62.32
34979;BME280;21185;50.978;13.720;2022-08-01T07:32:20;98184.22;;;22.15;62.45
34979;BME280;21185;50.978;13.720;2022-08-01T07:37:23;98186.44;;;22.06;62.88
34979;BME280;21185;50.978;13.720;2022-08-01T07:42:46;98187.72;;;22.04;63.22
34979;BME280;21185;50.978;13.720;2022-08-01T07:47:48;98199.19;;;21.97;63.80
34979;BME280;21185;50.978;13.720;2022-08-01T07:52:53;98197.50;;;21.91;64.77
34979;BME280;21185;50.978;13.720;2022-08-01T07:57:55;98191.31;;;21.86;65.14
34979;BME280;21185;50.978;13.720;2022-08-01T08:02:58;98190.53;;;21.85;66.12
34979;BME280;21185;50.978;13.720;2022-08-01T08:08:05;98190.38;;;21.92;66.19
34979;BME280;21185;50.978;13.720;2022-08-01T08:13:07;98194.72;;;21.98;66.41
34979;BME280;21185;50.978;13.720;2022-08-01T08:18:10;98199.41;;;22.08;66.91
34979;BME280;21185;50.978;13.720;2022-08-01T08:23:12;98189.00;;;22.18;66.75
34979;BME280;21185;50.978;13.720;2022-08-01T08:28:44;98195.50;;;22.27;66.90
34979;BME280;21185;50.978;13.720;2022-08-01T08:33:48;98195.53;;;22.44;66.47
34979;BME280;21185;50.978;13.720;2022-08-01T08:38:50;98195.94;;;22.52;66.95
34979;BME280;21185;50.978;13.720;2022-08-01T08:43:52;98199.44;;;22.58;67.30
34979;BME280;21185;50.978;13.720;2022-08-01T08:48:56;98196.09;;;22.62;67.22
34979;BME280;21185;50.978;13.720;2022-08-01T08:54:02;98197.69;;;22.80;67.01
34979;BME280;21185;50.978;13.720;2022-08-01T08:59:05;98193.59;;;22.89;66.81
34979;BME280;21185;50.978;13.720;2022-08-01T09:04:08;98195.66;;;23.04;66.98
34979;BME280;21185;50.978;13.720;2022-08-01T09:09:11;98201.03;;;23.09;66.87
34979;BME280;21185;50.978;13.720;2022-08-01T09:14:16;98200.34;;;23.19;66.80
34979;BME280;21185;50.978;13.720;2022-08-01T09:19:25;98209.78;;;23.32;66.32
34979;BME280;21185;50.978;13.720;2022-08-01T09:24:41;98202.41;;;23.34;66.37
34979;BME280;21185;50.978;13.720;2022-08-01T09:29:43;98212.19;;;23.33;66.03
34979;BME280;21185;50.978;13.720;2022-08-01T09:34:55;98208.66;;;23.27;65.81
34979;BME280;21185;50.978;13.720;2022-08-01T09:39:56;98207.13;;;23.32;65.60
34979;BME280;21185;50.978;13.720;2022-08-01T09:44:59;98203.13;;;23.51;65.05
34979;BME280;21185;50.978;13.720;2022-08-01T09:50:08;98201.31;;;23.73;64.82
34979;BME280;21185;50.978;13.720;2022-08-01T09:55:12;98199.63;;;23.89;63.82
34979;BME280;21185;50.978;13.720;2022-08-01T10:00:17;98211.22;;;24.10;63.41
34979;BME280;21185;50.978;13.720;2022-08-01T10:05:40;98198.72;;;24.32;62.71
34979;BME280;21185;50.978;13.720;2022-08-01T10:11:11;98191.47;;;24.54;62.03
34979;BME280;21185;50.978;13.720;2022-08-01T10:16:17;98186.09;;;24.44;62.26
34979;BME280;21185;50.978;13.720;2022-08-01T10:21:23;98195.53;;;24.30;61.85
34979;BME280;21185;50.978;13.720;2022-08-01T10:26:55;98190.81;;;24.37;62.15
34979;BME280;21185;50.978;13.720;2022-08-01T10:32:00;98182.38;;;24.45;61.52
34979;BME280;21185;50.978;13.720;2022-08-01T10:37:06;98184.44;;;24.38;61.83
34979;BME280;21185;50.978;13.720;2022-08-01T10:42:11;98204.03;;;24.32;61.48
34979;BME280;21185;50.978;13.720;2022-08-01T10:47:48;98220.22;;;24.09;61.98
34979;BME280;21185;50.978;13.720;2022-08-01T10:53:16;98229.09;;;23.71;63.21
34979;BME280;21185;50.978;13.720;2022-08-01T10:58:36;98220.63;;;23.52;63.95
34979;BME280;21185;50.978;13.720;2022-08-01T11:14:17;98230.03;;;23.21;65.07
34979;BME280;21185;50.978;13.720;2022-08-01T11:20:06;98229.53;;;23.24;65.20
34979;BME280;21185;50.978;13.720;2022-08-01T11:25:09;98218.78;;;23.31;65.31
34979;BME280;21185;50.978;13.720;2022-08-01T11:35:21;98208.97;;;23.97;64.85
34979;BME280;21185;50.978;13.720;2022-08-01T11:40:27;98200.19;;;24.23;64.12
34979;BME280;21185;50.978;13.720;2022-08-01T11:45:50;98193.28;;;24.49;63.97
34979;BME280;21185;50.978;13.720;2022-08-01T11:51:00;98184.50;;;24.80;63.51
34979;BME280;21185;50.978;13.720;2022-08-01T11:56:03;98189.03;;;24.85;62.67
34979;BME280;21185;50.978;13.720;2022-08-01T12:01:05;98198.16;;;24.62;62.35
34979;BME280;21185;50.978;13.720;2022-08-01T12:06:09;98201.28;;;24.54;62.29
34979;BME280;21185;50.978;13.720;2022-08-01T12:11:11;98190.88;;;24.47;61.84
34979;BME280;21185;50.978;13.720;2022-08-01T12:16:14;98192.41;;;24.75;61.04
34979;BME280;21185;50.978;13.720;2022-08-01T12:21:16;98205.88;;;25.01;60.43
34979;BME280;21185;50.978;13.720;2022-08-01T12:26:18;98211.50;;;25.09;60.30
34979;BME280;21185;50.978;13.720;2022-08-01T12:31:34;98192.91;;;25.09;59.88
34979;BME280;21185;50.978;13.720;2022-08-01T12:36:36;98206.72;;;25.11;59.55
34979;BME280;21185;50.978;13.720;2022-08-01T12:41:38;98197.69;;;25.07;58.04
34979;BME280;21185;50.978;13.720;2022-08-01T12:46:41;98208.66;;;25.26;57.95
34979;BME280;21185;50.978;13.720;2022-08-01T12:51:45;98207.59;;;25.22;58.33
34979;BME280;21185;50.978;13.720;2022-08-01T12:56:58;98206.28;;;25.30;58.24
34979;BME280;21185;50.978;13.720;2022-08-01T13:02:08;98203.69;;;25.45;57.66
34979;BME280;21185;50.978;13.720;2022-08-01T13:07:10;98202.13;;;25.49;56.91
34979;BME280;21185;50.978;13.720;2022-08-01T13:12:13;98197.66;;;25.60;56.61
34979;BME280;21185;50.978;13.720;2022-08-01T13:17:30;98194.44;;;25.58;56.16
34979;BME280;21185;50.978;13.720;2022-08-01T13:22:37;98197.97;;;25.73;55.99
34979;BME280;21185;50.978;13.720;2022-08-01T13:27:39;98204.63;;;25.76;55.29
34979;BME280;21185;50.978;13.720;2022-08-01T13:32:58;98190.31;;;25.87;55.06
34979;BME280;21185;50.978;13.720;2022-08-01T13:38:01;98197.25;;;25.98;54.38
34979;BME280;21185;50.978;13.720;2022-08-01T13:43:03;98205.47;;;25.97;54.18
34979;BME280;21185;50.978;13.720;2022-08-01T13:48:05;98194.59;;;25.98;53.53
34979;BME280;21185;50.978;13.720;2022-08-01T13:53:20;98196.97;;;26.10;53.40
34979;BME280;21185;50.978;13.720;2022-08-01T13:58:22;98202.28;;;26.20;53.04
34979;BME280;21185;50.978;13.720;2022-08-01T14:03:24;98199.38;;;26.17;52.68
34979;BME280;21185;50.978;13.720;2022-08-01T14:08:34;98204.44;;;26.28;52.80
34979;BME280;21185;50.978;13.720;2022-08-01T14:13:37;98211.06;;;26.31;52.67
34979;BME280;21185;50.978;13.720;2022-08-01T14:18:47;98219.88;;;26.36;52.73
34979;BME280;21185;50.978;13.720;2022-08-01T14:23:50;98215.59;;;26.25;52.88
34979;BME280;21185;50.978;13.720;2022-08-01T14:28:52;98212.66;;;26.11;53.33
34979;BME280;21185;50.978;13.720;2022-08-01T14:33:54;98216.91;;;26.07;53.19
34979;BME280;21185;50.978;13.720;2022-08-01T14:38:59;98226.22;;;26.15;52.98
34979;BME280;21185;50.978;13.720;2022-08-01T14:44:02;98224.38;;;26.26;53.01
34979;BME280;21185;50.978;13.720;2022-08-01T14:49:04;98232.13;;;26.32;52.94
34979;BME280;21185;50.978;13.720;2022-08-01T14:54:06;98235.31;;;26.39;52.81
34979;BME280;21185;50.978;13.720;2022-08-01T14:59:10;98229.16;;;26.24;52.81
34979;BME280;21185;50.978;13.720;2022-08-01T15:04:22;98238.44;;;26.16;52.96
34979;BME280;21185;50.978;13.720;2022-08-01T15:09:24;98235.78;;;26.11;52.94
34979;BME280;21185;50.978;13.720;2022-08-01T15:14:27;98242.69;;;25.97;52.65
34979;BME280;21185;50.978;13.720;2022-08-01T15:19:49;98240.03;;;25.92;52.65
34979;BME280;21185;50.978;13.720;2022-08-01T15:24:53;98245.59;;;25.90;52.60
34979;BME280;21185;50.978;13.720;2022-08-01T15:29:58;98248.00;;;25.97;52.43
34979;BME280;21185;50.978;13.720;2022-08-01T15:35:00;98250.41;;;25.93;52.28
34979;BME280;21185;50.978;13.720;2022-08-01T15:40:04;98248.78;;;25.87;52.25
34979;BME280;21185;50.978;13.720;2022-08-01T15:45:08;98252.22;;;25.83;52.33
34979;BME280;21185;50.978;13.720;2022-08-01T15:50:31;98252.22;;;25.77;52.33
34979;BME280;21185;50.978;13.720;2022-08-01T15:55:37;98248.50;;;25.78;51.60
34979;BME280;21185;50.978;13.720;2022-08-01T16:00:40;98256.75;;;25.82;51.40
34979;BME280;21185;50.978;13.720;2022-08-01T16:05:45;98260.72;;;25.79;51.53
34979;BME280;21185;50.978;13.720;2022-08-01T16:10:47;98258.31;;;25.73;51.51
34979;BME280;21185;50.978;13.720;2022-08-01T16:15:49;98260.97;;;25.73;51.33
34979;BME280;21185;50.978;13.720;2022-08-01T16:20:51;98249.53;;;25.72;50.78
34979;BME280;21185;50.978;13.720;2022-08-01T16:25:53;98254.31;;;25.70;50.69
34979;BME280;21185;50.978;13.720;2022-08-01T16:30:55;98247.94;;;25.71;50.08
34979;BME280;21185;50.978;13.720;2022-08-01T16:36:17;98245.28;;;25.76;50.09
34979;BME280;21185;50.978;13.720;2022-08-01T16:41:20;98252.72;;;25.74;50.39
34979;BME280;21185;50.978;13.720;2022-08-01T16:46:23;98250.56;;;25.66;50.72
34979;BME280;21185;50.978;13.720;2022-08-01T16:51:28;98255.81;;;25.56;51.03
34979;BME280;21185;50.978;13.720;2022-08-01T16:56:33;98256.88;;;25.55;50.75
34979;BME280;21185;50.978;13.720;2022-08-01T17:01:36;98259.50;;;25.50;50.90
34979;BME280;21185;50.978;13.720;2022-08-01T17:06:58;98261.59;;;25.43;51.11
34979;BME280;21185;50.978;13.720;2022-08-01T17:12:00;98257.84;;;25.39;50.88
34979;BME280;21185;50.978;13.720;2022-08-01T17:17:02;98257.31;;;25.37;50.65
34979;BME280;21185;50.978;13.720;2022-08-01T17:22:05;98263.66;;;25.31;51.00
34979;BME280;21185;50.978;13.720;2022-08-01T17:27:07;98269.19;;;25.24;50.97
34979;BME280;21185;50.978;13.720;2022-08-01T17:32:14;98271.03;;;25.18;50.68
34979;BME280;21185;50.978;13.720;2022-08-01T17:37:16;98278.16;;;25.13;50.53
34979;BME280;21185;50.978;13.720;2022-08-01T17:42:19;98278.38;;;25.06;50.52
34979;BME280;21185;50.978;13.720;2022-08-01T17:47:24;98286.31;;;25.01;50.15
34979;BME280;21185;50.978;13.720;2022-08-01T17:52:46;98290.53;;;24.97;50.44
34979;BME280;21185;50.978;13.720;2022-08-01T17:57:56;98289.91;;;24.90;50.52
34979;BME280;21185;50.978;13.720;2022-08-01T18:02:57;98290.94;;;24.84;50.73
34979;BME280;21185;50.978;13.720;2022-08-01T18:08:25;98286.63;;;24.78;50.61
34979;BME280;21185;50.978;13.720;2022-08-01T18:13:27;98295.09;;;24.75;50.61
34979;BME280;21185;50.978;13.720;2022-08-01T18:18:30;98294.75;;;24.66;50.67
34979;BME280;21185;50.978;13.720;2022-08-01T18:23:35;98307.69;;;24.58;50.51
34979;BME280;21185;50.978;13.720;2022-08-01T18:28:37;98305.00;;;24.52;51.06
34979;BME280;21185;50.978;13.720;2022-08-01T18:33:47;98304.38;;;24.45;50.91
34979;BME280;21185;50.978;13.720;2022-08-01T18:38:49;98308.53;;;24.36;51.01
34979;BME280;21185;50.978;13.720;2022-08-01T18:43:51;98332.31;;;24.26;51.22
34979;BME280;21185;50.978;13.720;2022-08-01T18:49:10;98340.66;;;24.18;51.69
34979;BME280;21185;50.978;13.720;2022-08-01T18:54:13;98342.97;;;24.09;51.55
34979;BME280;21185;50.978;13.720;2022-08-01T18:59:17;98343.94;;;24.03;51.82
34979;BME280;21185;50.978;13.720;2022-08-01T19:04:19;98345.72;;;23.98;51.56
34979;BME280;21185;50.978;13.720;2022-08-01T19:09:21;98346.97;;;23.90;52.15
34979;BME280;21185;50.978;13.720;2022-08-01T19:14:24;98354.03;;;23.84;51.82
34979;BME280;21185;50.978;13.720;2022-08-01T19:19:27;98359.78;;;23.76;52.12
34979;BME280;21185;50.978;13.720;2022-08-01T19:24:29;98374.56;;;23.72;52.09
34979;BME280;21185;50.978;13.720;2022-08-01T19:29:36;98367.34;;;23.68;52.28
34979;BME280;21185;50.978;13.720;2022-08-01T19:34:47;98388.22;;;23.64;52.66
34979;BME280;21185;50.978;13.720;2022-08-01T19:39:56;98396.34;;;23.57;52.25
34979;BME280;21185;50.978;13.720;2022-08-01T19:44:58;98406.00;;;23.52;52.34
34979;BME280;21185;50.978;13.720;2022-08-01T19:50:04;98417.56;;;23.46;52.51
34979;BME280;21185;50.978;13.720;2022-08-01T19:55:06;98408.19;;;23.38;52.87
34979;BME280;21185;50.978;13.720;2022-08-01T20:00:10;98417.56;;;23.29;52.80
34979;BME280;21185;50.978;13.720;2022-08-01T20:05:28;98424.63;;;23.23;53.42
34979;BME280;21185;50.978;13.720;2022-08-01T20:10:37;98438.59;;;23.19;53.25
34979;BME280;21185;50.978;13.720;2022-08-01T20:15:41;98443.00;;;23.13;53.33
34979;BME280;21185;50.978;13.720;2022-08-01T20:20:48;98441.06;;;23.09;53.24
34979;BME280;21185;50.978;13.720;2022-08-01T20:25:54;98446.25;;;23.04;53.24
34979;BME280;21185;50.978;13.720;2022-08-01T20:30:59;98453.31;;;22.98;53.58
34979;BME280;21185;50.978;13.720;2022-08-01T20:36:07;98448.16;;;22.91;53.54
34979;BME280;21185;50.978;13.720;2022-08-01T20:41:26;98448.88;;;22.87;53.55
34979;BME280;21185;50.978;13.720;2022-08-01T20:46:28;98455.69;;;22.83;53.66
34979;BME280;21185;50.978;13.720;2022-08-01T20:51:31;98466.13;;;22.78;53.70
34979;BME280;21185;50.978;13.720;2022-08-01T20:57:00;98456.03;;;22.75;53.85
34979;BME280;21185;50.978;13.720;2022-08-01T21:02:54;98469.16;;;22.70;54.05
34979;BME280;21185;50.978;13.720;2022-08-01T21:12:48;98457.56;;;22.59;53.92
34979;BME280;21185;50.978;13.720;2022-08-01T21:23:10;98473.81;;;22.51;54.52
34979;BME280;21185;50.978;13.720;2022-08-01T21:28:16;98467.03;;;22.43;54.44
34979;BME280;21185;50.978;13.720;2022-08-01T21:33:21;98463.84;;;22.41;54.37
34979;BME280;21185;50.978;13.720;2022-08-01T21:38:25;98472.00;;;22.40;54.66
34979;BME280;21185;50.978;13.720;2022-08-01T21:43:31;98459.00;;;22.38;54.46
34979;BME280;21185;50.978;13.720;2022-08-01T21:48:34;98471.09;;;22.34;54.54
34979;BME280;21185;50.978;13.720;2022-08-01T21:54:03;98469.25;;;22.35;55.03
34979;BME280;21185;50.978;13.720;2022-08-01T21:59:24;98477.41;;;22.33;55.15
34979;BME280;21185;50.978;13.720;2022-08-01T22:04:40;98477.97;;;22.35;54.95
34979;BME280;21185;50.978;13.720;2022-08-01T22:09:47;98485.91;;;22.35;55.32
34979;BME280;21185;50.978;13.720;2022-08-01T22:14:53;98490.41;;;22.35;55.17
34979;BME280;21185;50.978;13.720;2022-08-01T22:19:57;98493.75;;;22.30;55.21
34979;BME280;21185;50.978;13.720;2022-08-01T22:24:59;98506.84;;;22.25;55.49
34979;BME280;21185;50.978;13.720;2022-08-01T22:30:04;98505.25;;;22.24;55.26
34979;BME280;21185;50.978;13.720;2022-08-01T22:35:10;98506.50;;;22.21;55.67
34979;BME280;21185;50.978;13.720;2022-08-01T22:40:14;98509.84;;;22.17;55.75
34979;BME280;21185;50.978;13.720;2022-08-01T22:45:28;98516.16;;;22.16;55.95
34979;BME280;21185;50.978;13.720;2022-08-01T22:50:38;98513.06;;;22.19;55.77
34979;BME280;21185;50.978;13.720;2022-08-01T22:55:48;98505.81;;;22.14;55.43
34979;BME280;21185;50.978;13.720;2022-08-01T23:01:03;98507.53;;;22.09;55.81
34979;BME280;21185;50.978;13.720;2022-08-01T23:06:11;98517.19;;;22.03;55.75
34979;BME280;21185;50.978;13.720;2022-08-01T23:11:14;98519.13;;;21.96;55.96
34979;BME280;21185;50.978;13.720;2022-08-01T23:16:17;98516.94;;;21.93;56.16
34979;BME280;21185;50.978;13.720;2022-08-01T23:21:21;98519.69;;;21.86;56.27
34979;BME280;21185;50.978;13.720;2022-08-01T23:26:25;98507.16;;;21.82;56.25
34979;BME280;21185;50.978;13.720;2022-08-01T23:31:29;98514.16;;;21.76;56.69
34979;BME280;21185;50.978;13.720;2022-08-01T23:36:52;98521.16;;;21.71;56.43
34979;BME280;21185;50.978;13.720;2022-08-01T23:41:54;98522.06;;;21.64;56.64
34979;BME280;21185;50.978;13.720;2022-08-01T23:46:59;98519.53;;;21.58;57.11
34979;BME280;21185;50.978;13.720;2022-08-01T23:52:03;98510.69;;;21.52;57.26
34979;BME280;21185;50.978;13.720;2022-08-01T23:57:05;98509.41;;;21.55;57.30
